Latest Coastal Weather Observations for Strahan

IDT60701

Issued at 4:32 am EDT Tuesday 22 October 2019 (issued every 10 minutes, with the page automatically refreshed every 10 minutes)

About coastal observations | Map of coastal stations | Coastal observations for TAS | Marine services | Other Formats
Station Details ID: 097072 Name: STRAHAN AERODROME Lat: -42.16 Lon: 145.29 Height: 21.0 m
Data from the previous 72 hours. | See also: Recent months at Strahan
Date/Time
EDT
Wind Sea
Height
m
Swell Vis
km
Cloud Weather Temp
°C
Press
hPa
Rain since
9am
mm
Dir  Spd
kts
Gust
kts
Height
m
Period
s
Dir
22/04:30am CALM 0 0 - - - - 10 Cloudy - 7.9 1025.1 0.4
22/04:00am CALM 0 0 - - - - 10 Partly cloudy - 8.2 1025.2 0.4
22/03:30am NE 4 5 - - - - 10 Cloudy - 8.6 1025.2 0.4
22/03:00am SSE 1 5 - - - - 10 Cloudy - 8.7 1025.3 0.4
22/02:30am CALM 0 0 - - - - 10 Cloudy - 8.9 1025.5 0.4
22/02:00am NNE 2 5 - - - - 10 Cloudy - 8.8 1025.6 0.4
22/01:30am CALM 0 0 - - - - 10 Cloudy - 9.0 1025.9 0.4
22/01:00am CALM 0 3 - - - - 10 Cloudy - 9.0 1026.0 0.4
22/12:30am CALM 0 0 - - - - 10 Partly cloudy - 9.1 1026.1 0.4
22/12:00am CALM 0 2 - - - - 10 Cloudy Recent precip. 9.0 1026.2 0.4
 
Date/Time
EDT
Wind Sea
Height
m
Swell Vis
km
Cloud Weather Temp
°C
Press
hPa
Rain since
9am
mm
Dir  Spd
kts
Gust
kts
Height
m
Period
s
Dir
21/11:30pm CALM 0 0 - - - - 9 Partly cloudy - 9.0 1026.4 0.4
21/11:18pm CALM 0 0 - - - - 6 Partly cloudy - 8.9 1026.3 0.4
21/11:00pm S 2 6 - - - - 10 Partly cloudy - 9.1 1026.4 0.4
21/10:58pm S 3 6 - - - - 10 Partly cloudy - 9.1 1026.4 0.4
21/10:42pm WSW 3 5 - - - - 10 Partly cloudy - 9.1 1026.5 0.4
21/10:30pm W 4 7 - - - - 10 Partly cloudy - 9.3 1026.5 0.4
21/10:00pm SW 5 6 - - - - 10 Partly cloudy - 9.2 1026.5 0.4
21/09:39pm WSW 7 10 - - - - 10 Partly cloudy - 9.8 1026.4 0.4
21/09:32pm NW 6 9 - - - - 6 Partly cloudy - 10.0 1026.5 0.4
21/09:30pm NNW 5 9 - - - - 6 Partly cloudy - 10.1 1026.4 0.4
21/09:17pm NW 5 7 - - - - 5 Partly cloudy - 10.0 1026.5 0.2
21/09:00pm CALM 0 3 - - - - 10 Cloudy - 9.7 1026.5 0.2
21/08:30pm WSW 5 7 - - - - 10 Partly cloudy - 10.0 1026.1 0.2
21/08:00pm WSW 7 9 - - - - 10 Partly cloudy - 10.4 1026.1 0.2
21/07:44pm W 6 8 - - - - 10 Partly cloudy - 10.5 1026.0 0.2
21/07:30pm W 7 9 - - - - 10 Partly cloudy - 10.7 1026.1 0.2
21/07:09pm W 7 10 - - - - 10 Partly cloudy - 11.1 1026.1 0.2
21/07:00pm W 6 9 - - - - 10 Partly cloudy - 11.2 1026.0 0.2
21/06:30pm W 9 13 - - - - 10 Partly cloudy - 12.1 1026.0 0.2
21/06:17pm W 10 12 - - - - 10 Partly cloudy - 11.6 1026.1 0.2
21/06:04pm W 11 14 - - - - 10 Partly cloudy - 11.9 1026.0 0.2
21/06:00pm W 12 14 - - - - 10 Cloudy - 11.8 1025.9 0.2
21/05:36pm W 9 12 - - - - 10 Partly cloudy - 11.8 1025.8 0.2
21/05:30pm W 8 10 - - - - 10 Partly cloudy - 11.9 1025.9 0.2
21/05:00pm W 9 13 - - - - 10 Partly cloudy - 11.7 1025.9 0.2
21/04:59pm W 9 11 - - - - 10 Partly cloudy - 11.5 1025.9 0.2
21/04:43pm W 7 10 - - - - 3 Partly cloudy - 11.6 1025.9 0.2
21/04:40pm W 8 11 - - - - 3 Partly cloudy - 11.3 1026.0 0.2
21/04:30pm W 10 12 - - - - 5 Partly cloudy - 11.7 1025.9 0.2
21/04:04pm WNW 9 12 - - - - 10 Partly cloudy - 13.7 1025.9 0.2
21/04:00pm W 9 14 - - - - 10 Partly cloudy - 13.6 1026.0 0.2
21/03:44pm WNW 9 15 - - - - 10 Partly cloudy - 13.6 1026.0 0.2
21/03:37pm WNW 9 14 - - - - 10 Partly cloudy - 13.1 1026.1 0.2
21/03:30pm WNW 10 14 - - - - 10 Partly cloudy - 13.7 1026.1 0.2
21/03:21pm WNW 10 15 - - - - 10 Partly cloudy - 13.9 1026.1 0.2
21/03:20pm WNW 10 15 - - - - 10 Partly cloudy - 14.0 1026.1 0.2
21/03:00pm W 10 13 - - - - 10 Cloudy Recent precip. 13.7 1026.2 0.2
21/02:56pm W 10 13 - - - - 10 Partly cloudy - 13.4 1026.1 0.2
21/02:30pm W 10 14 - - - - 10 Partly cloudy - 14.3 1026.2 0.2
21/02:00pm NW 11 14 - - - - 10 Cloudy - 13.7 1026.2 0.0
21/01:30pm WNW 10 15 - - - - 10 Cloudy - 13.3 1026.3 0.0
21/01:15pm W 9 14 - - - - 10 Cloudy - 13.8 1026.3 0.0
21/01:00pm W 10 13 - - - - 10 Cloudy - 12.7 1026.4 0.0
21/12:30pm WNW 10 12 - - - - 10 Cloudy - 12.4 1026.6 0.0
21/12:18pm W 10 13 - - - - 10 Partly cloudy - 11.7 1026.6 0.0
21/12:00pm W 9 11 - - - - 2 Cloudy Showers 11.6 1026.7 0.0
21/11:46am W 10 13 - - - - 5 Partly cloudy - 12.2 1026.8 0.0
21/11:30am WNW 9 13 - - - - 10 Partly cloudy - 12.9 1026.7 0.0
21/11:00am WNW 10 13 - - - - 10 Partly cloudy - 12.3 1026.9 0.0
21/10:42am W 9 13 - - - - 10 Partly cloudy - 12.3 1027.0 0.0
21/10:30am WNW 9 15 - - - - 4 Partly cloudy - 11.5 1027.1 0.0
21/10:24am WNW 10 15 - - - - 5 Partly cloudy - 11.1 1027.1 0.0
21/10:16am W 10 13 - - - - 10 Partly cloudy - 11.6 1027.1 0.0
21/10:11am WNW 10 13 - - - - 10 Partly cloudy - 11.9 1027.1 0.0
21/10:00am WNW 8 11 - - - - 10 Partly cloudy - 11.9 1027.0 0.0
21/09:30am WNW 8 11 - - - - 10 Partly cloudy - 11.5 1027.0 0.0
21/09:23am WNW 8 11 - - - - 10 Partly cloudy - 11.5 1027.0 0.0
21/09:18am WNW 7 10 - - - - 10 Partly cloudy - 11.2 1026.9 0.0
21/09:00am WNW 9 11 - - - - 5 Mostly cloudy Drizzle 10.8 1026.8 3.0
21/08:43am WNW 7 9 - - - - 10 Partly cloudy - 11.2 1026.6 3.0
21/08:30am NW 9 11 - - - - 10 Partly cloudy - 10.4 1026.5 3.0
21/08:29am NW 8 11 - - - - 10 Partly cloudy - 10.4 1026.5 3.0
21/08:08am W 6 8 - - - - 10 Partly cloudy - 10.5 1026.2 3.0
21/08:00am WSW 6 8 - - - - 10 Partly cloudy - 10.4 1026.1 3.0
21/07:31am WNW 6 10 - - - - 10 Partly cloudy - 9.9 1026.0 3.0
21/07:30am WNW 5 9 - - - - 10 Partly cloudy - 9.8 1026.0 3.0
21/07:17am WNW 5 7 - - - - 10 Partly cloudy - 9.3 1025.9 3.0
21/07:05am W 7 9 - - - - 10 Partly cloudy - 9.2 1025.8 3.0
21/07:00am W 8 10 - - - - 10 Partly cloudy - 9.3 1025.8 3.0
21/06:30am WNW 5 8 - - - - 5 Partly cloudy - 9.4 1025.6 2.4
21/06:00am W 7 12 - - - - 5 Cloudy Drizzle 9.7 1025.3 2.2
21/05:34am WNW 6 9 - - - - 10 Partly cloudy - 9.5 1025.3 2.2
21/05:30am W 6 9 - - - - 10 Partly cloudy - 9.6 1025.3 2.2
21/05:17am NW 4 7 - - - - 10 Partly cloudy - 9.6 1025.2 2.2
21/05:15am NW 5 7 - - - - 10 Partly cloudy - 9.5 1025.2 2.2
21/05:00am NW 4 6 - - - - 10 Partly cloudy - 9.6 1025.0 2.2
21/04:30am WNW 7 10 - - - - 7 Partly cloudy - 9.5 1024.9 2.2
21/04:01am WNW 7 9 - - - - 10 Partly cloudy - 9.7 1024.7 2.2
21/04:00am WNW 7 8 - - - - 10 Partly cloudy - 9.6 1024.7 2.2
21/03:30am WNW 6 8 - - - - 10 Partly cloudy - 9.4 1024.7 2.2
21/03:24am WNW 6 7 - - - - 10 Partly cloudy - 9.3 1024.7 2.2
21/03:00am WNW 7 11 - - - - 10 Cloudy Recent precip. 9.7 1024.7 2.2
21/02:53am WNW 6 8 - - - - 10 Partly cloudy - 9.2 1024.7 2.2
21/02:30am WNW 7 11 - - - - 10 Partly cloudy - 9.0 1024.7 2.0
21/02:06am NW 7 11 - - - - 10 Partly cloudy - 9.5 1024.8 2.0
21/02:00am NNW 6 8 - - - - 8 Partly cloudy - 9.6 1024.9 2.0
21/01:48am N 6 7 - - - - 5 Partly cloudy - 9.4 1024.9 2.0
21/01:30am N 5 7 - - - - 8 Partly cloudy - 9.2 1025.1 2.0
21/01:00am NNW 5 7 - - - - 10 Partly cloudy - 9.6 1025.1 2.0
21/12:30am NW 5 7 - - - - 10 Partly cloudy - 9.7 1025.1 2.0
21/12:28am NW 5 7 - - - - 10 Partly cloudy - 9.7 1025.1 2.0
21/12:00am WNW 8 11 - - - - 8 Cloudy Showers 9.6 1025.2 2.0
 
Date/Time
EDT
Wind Sea
Height
m
Swell Vis
km
Cloud Weather Temp
°C
Press
hPa
Rain since
9am
mm
Dir  Spd
kts
Gust
kts
Height
m
Period
s
Dir
20/11:54pm WNW 7 11 - - - - 10 Partly cloudy - 9.8 1025.2 2.0
20/11:38pm WNW 10 15 - - - - 3 Partly cloudy - 9.7 1025.3 2.0
20/11:31pm W 12 17 - - - - 5 Partly cloudy - 9.8 1025.2 2.0
20/11:30pm WNW 12 17 - - - - 6 Partly cloudy - 9.8 1025.2 2.0
20/11:00pm WNW 5 8 - - - - 10 Partly cloudy - 9.9 1025.1 2.0
20/10:30pm W 6 9 - - - - 10 Partly cloudy - 10.0 1024.9 2.0
20/10:00pm W 9 14 - - - - 10 Partly cloudy - 9.9 1024.9 2.0
20/09:31pm WSW 9 13 - - - - 9 Partly cloudy - 10.0 1024.6 2.0
20/09:30pm WSW 9 13 - - - - 9 Partly cloudy - 10.0 1024.6 2.0
20/09:29pm WSW 9 13 - - - - 9 Partly cloudy - 10.1 1024.6 2.0
20/09:11pm W 9 14 - - - - 5 Partly cloudy - 10.1 1024.4 1.8
20/09:08pm WNW 8 11 - - - - 10 Partly cloudy - 10.0 1024.4 1.8
20/09:05pm WNW 8 11 - - - - 10 Partly cloudy - 9.9 1024.3 1.8
20/09:00pm WNW 8 11 - - - - 10 Cloudy Showers 9.8 1024.3 1.8
20/08:36pm W 10 16 - - - - 5 Partly cloudy - 10.2 1024.0 1.6
20/08:30pm W 8 11 - - - - 10 Partly cloudy - 10.0 1023.9 1.6
20/08:24pm W 8 11 - - - - 10 Partly cloudy - 9.9 1023.8 1.6
20/08:02pm W 10 16 - - - - 5 Partly cloudy - 10.2 1023.5 1.6
20/08:00pm W 9 16 - - - - 7 Partly cloudy - 10.3 1023.5 1.6
20/07:59pm W 8 14 - - - - 9 Partly cloudy - 10.2 1023.5 1.6
20/07:38pm WSW 9 15 - - - - 5 Partly cloudy - 10.3 1023.2 1.6
20/07:32pm W 7 13 - - - - 8 Partly cloudy - 10.4 1023.1 1.6
20/07:30pm W 7 9 - - - - 10 Partly cloudy - 10.3 1023.1 1.6
20/07:16pm W 11 17 - - - - 3 Partly cloudy - 10.2 1022.9 1.6
20/07:07pm W 12 19 - - - - 5 Partly cloudy - 10.3 1022.8 1.4
20/07:03pm W 9 18 - - - - 10 Partly cloudy - 10.6 1022.7 1.4
20/07:00pm W 8 13 - - - - 10 Partly cloudy - 10.7 1022.6 1.4
20/06:58pm WSW 8 11 - - - - 10 Partly cloudy - 10.6 1022.6 1.4
20/06:47pm W 12 18 - - - - 3 Partly cloudy - 10.5 1022.4 1.4
20/06:41pm W 13 17 - - - - 5 Partly cloudy - 10.8 1022.3 1.4
20/06:30pm WSW 10 16 - - - - 10 Partly cloudy - 11.0 1022.0 1.4
20/06:00pm W 11 17 - - - - 10 Cloudy Recent precip. 11.2 1021.7 1.4
20/05:48pm W 11 15 - - - - 10 Partly cloudy - 11.2 1021.6 1.4
20/05:42pm WSW 11 15 - - - - 10 Partly cloudy - 11.2 1021.5 1.4
20/05:30pm W 14 19 - - - - 3 Partly cloudy - 10.9 1021.4 1.4
20/05:27pm WSW 12 19 - - - - 5 Partly cloudy - 11.2 1021.3 1.4
20/05:00pm WSW 14 19 - - - - 10 Partly cloudy - 12.0 1021.0 1.2
20/04:30pm WSW 12 19 - - - - 7 Partly cloudy - 11.8 1020.6 1.2
20/04:00pm WSW 16 22 - - - - 10 Partly cloudy - 11.9 1020.5 1.2
20/03:43pm WSW 14 23 - - - - 7 Partly cloudy - 11.5 1020.3 1.2
20/03:36pm WSW 15 23 - - - - 10 Partly cloudy - 11.2 1020.3 1.2
20/03:30pm WSW 13 21 - - - - 10 Partly cloudy - 11.7 1020.2 1.2
20/03:18pm WSW 13 20 - - - - 5 Partly cloudy - 11.1 1020.1 1.2
20/03:01pm WSW 15 21 - - - - 10 Partly cloudy - 11.6 1020.0 1.2
20/03:00pm WSW 15 21 - - - - 10 Cloudy Showers 12.1 1020.0 1.2
20/02:45pm WSW 17 24 - - - - 5 Partly cloudy - 11.4 1020.1 1.2
20/02:35pm WSW 16 22 - - - - 10 Partly cloudy - 12.1 1019.9 1.2
20/02:30pm WSW 15 22 - - - - 10 Partly cloudy - 12.0 1019.9 1.2
20/02:02pm W 15 23 - - - - 5 Partly cloudy - 11.7 1019.7 1.0
20/02:00pm W 14 20 - - - - 6 Partly cloudy - 11.9 1019.7 1.0
20/01:59pm W 14 19 - - - - 7 Partly cloudy - 12.0 1019.7 1.0
20/01:58pm WSW 14 19 - - - - 10 Partly cloudy - 12.3 1019.7 1.0
20/01:30pm WSW 16 23 - - - - 10 Partly cloudy - 12.4 1019.5 1.0
20/01:16pm WSW 16 22 - - - - 10 Partly cloudy - 12.8 1019.4 1.0
20/01:09pm WSW 18 24 - - - - 10 Partly cloudy - 12.2 1019.3 1.0
20/01:00pm WSW 18 25 - - - - 10 Partly cloudy - 12.1 1019.2 1.0
20/12:38pm W 14 21 - - - - 10 Partly cloudy - 11.7 1019.2 1.0
20/12:30pm W 14 21 - - - - 7 Partly cloudy - 11.4 1019.2 1.0
20/12:00pm W 16 24 - - - - 2 Cloudy Showers 10.7 1019.4 1.0
20/11:54am W 15 24 - - - - 5 Partly cloudy - 10.7 1019.4 0.6
20/11:49am W 14 20 - - - - 9 Partly cloudy - 10.8 1019.4 0.6
20/11:45am W 13 20 - - - - 9 Partly cloudy - 10.9 1019.4 0.6
20/11:41am W 12 20 - - - - 8 Partly cloudy - 10.8 1019.4 0.6
20/11:30am W 15 24 - - - - 3 Partly cloudy - 10.7 1019.4 0.6
20/11:19am W 16 23 - - - - 5 Partly cloudy - 10.8 1019.3 0.6
20/11:16am W 15 22 - - - - 7 Partly cloudy - 10.9 1019.2 0.6
20/11:00am W 18 24 - - - - 5 Partly cloudy - 10.7 1019.0 0.6
20/10:59am W 18 25 - - - - 5 Cloudy - 10.8 1019.0 0.6
20/10:30am W 18 24 - - - - 10 Cloudy - 10.9 1018.6 0.6
20/10:00am W 18 25 - - - - 10 Cloudy - 10.6 1017.9 0.6
20/09:48am W 18 25 - - - - 10 Partly cloudy - 10.5 1017.8 0.6
20/09:45am W 18 25 - - - - 10 Partly cloudy - 10.4 1017.7 0.6
20/09:30am W 17 24 - - - - 3 Partly cloudy - 10.3 1017.5 0.6
20/09:21am WNW 17 25 - - - - 3 Partly cloudy - 10.4 1017.4 0.4
20/09:08am W 15 22 - - - - 5 Partly cloudy - 10.4 1017.2 0.2
20/09:05am WNW 16 26 - - - - 8 Partly cloudy - 10.5 1017.1 0.0
20/09:00am W 19 27 - - - - 8 Cloudy Rain 10.3 1017.0 7.8
20/08:53am W 17 27 - - - - 8 Partly cloudy - 10.3 1016.9 7.8
20/08:30am W 16 23 - - - - 10 Partly cloudy - 10.5 1016.4 7.2
20/08:00am W 17 24 - - - - 10 Cloudy - 10.5 1016.2 6.4
20/07:30am W 17 25 - - - - 8 Partly cloudy - 10.6 1015.6 6.2
20/07:18am WNW 16 26 - - - - 10 Partly cloudy - 10.9 1015.3 6.2
20/07:00am W 15 20 - - - - 10 Partly cloudy - 10.8 1015.2 6.2
20/06:30am W 15 23 - - - - 10 Partly cloudy - 10.4 1015.0 6.0
20/06:07am W 16 26 - - - - 10 Partly cloudy - 9.8 1015.0 6.0
20/06:01am W 16 26 - - - - 9 Partly cloudy - 10.0 1014.9 6.0
20/06:00am W 15 24 - - - - 8 Cloudy Showers 10.0 1014.9 6.0
20/05:50am W 16 25 - - - - 5 Partly cloudy - 10.2 1014.9 6.0
20/05:47am W 15 25 - - - - 9 Partly cloudy - 10.5 1014.8 6.0
20/05:30am W 13 19 - - - - 10 Partly cloudy - 10.7 1014.5 6.0
20/05:00am W 15 23 - - - - 10 Partly cloudy - 10.2 1014.4 6.0
20/04:34am W 15 25 - - - - 7 Partly cloudy - 10.0 1014.3 6.0
20/04:30am W 13 20 - - - - 10 Partly cloudy - 10.2 1014.1 6.0
20/04:00am W 13 20 - - - - 10 Partly cloudy - 9.5 1014.2 6.0
20/03:58am W 13 19 - - - - 10 Partly cloudy - 9.5 1014.2 6.0
20/03:40am WNW 17 25 - - - - 5 Partly cloudy - 9.8 1014.2 6.0
20/03:38am WNW 15 25 - - - - 8 Partly cloudy - 10.1 1014.2 5.8
20/03:30am WNW 11 17 - - - - 10 Partly cloudy - 10.1 1014.1 5.8
20/03:00am W 15 24 - - - - 9 Cloudy Showers 9.6 1014.2 5.8
20/02:30am W 12 16 - - - - 10 Partly cloudy - 9.7 1014.1 5.8
20/02:05am W 13 19 - - - - 10 Partly cloudy - 9.5 1014.0 5.8
20/02:00am W 13 18 - - - - 10 Partly cloudy - 9.3 1014.2 5.8
20/01:56am W 15 25 - - - - 6 Partly cloudy - 9.3 1014.2 5.8
20/01:50am W 17 25 - - - - 5 Partly cloudy - 9.5 1014.3 5.8
20/01:46am W 15 25 - - - - 10 Partly cloudy - 9.6 1014.3 5.8
20/01:30am WNW 10 14 - - - - 10 Partly cloudy - 9.3 1014.1 5.8
20/01:09am W 15 24 - - - - 10 Partly cloudy - 9.1 1013.9 5.6
20/01:00am W 16 24 - - - - 6 Partly cloudy - 9.0 1014.0 5.6
20/12:56am W 18 24 - - - - 5 Partly cloudy - 9.0 1014.1 5.6
20/12:38am WNW 15 25 - - - - 10 Partly cloudy - 10.3 1013.7 5.2
20/12:30am WNW 13 18 - - - - 10 Partly cloudy - 10.2 1013.7 5.2
20/12:00am WNW 16 24 - - - - 10 Mostly cloudy Showers 9.8 1013.6 5.2
 
Date/Time
EDT
Wind Sea
Height
m
Swell Vis
km
Cloud Weather Temp
°C
Press
hPa
Rain since
9am
mm
Dir  Spd
kts
Gust
kts
Height
m
Period
s
Dir
19/11:30pm WNW 13 20 - - - - 10 Partly cloudy - 9.9 1013.6 5.2
19/11:00pm W 16 21 - - - - 10 Partly cloudy - 9.8 1013.5 5.2
19/10:30pm W 14 21 - - - - 10 Partly cloudy - 9.5 1013.2 5.2
19/10:00pm WNW 15 22 - - - - 10 Partly cloudy - 8.8 1013.1 5.2
19/09:36pm W 15 29 - - - - 10 Partly cloudy - 9.1 1012.9 4.8
19/09:30pm W 14 21 - - - - 10 Partly cloudy - 8.7 1012.8 4.8
19/09:09pm W 13 18 - - - - 10 Partly cloudy - 8.0 1012.5 4.8
19/09:00pm W 19 29 - - - - 6 Cloudy Showers 8.1 1012.5 4.8
19/08:56pm W 21 31 - - - - 5 Partly cloudy - 8.1 1012.5 4.6
19/08:33pm WNW 16 26 - - - - 10 Partly cloudy - 10.1 1011.8 4.4
19/08:30pm WNW 16 23 - - - - 10 Partly cloudy - 10.0 1011.7 4.4
19/08:25pm W 17 27 - - - - 10 Partly cloudy - 10.0 1011.7 4.4
19/08:00pm W 16 25 - - - - 10 Partly cloudy - 10.0 1011.3 4.4
19/07:42pm W 18 28 - - - - 10 Partly cloudy - 9.9 1011.0 4.4
19/07:30pm W 17 23 - - - - 10 Partly cloudy - 9.6 1010.7 4.4
19/07:12pm W 18 32 - - - - 10 Partly cloudy - 10.2 1010.4 4.4
19/07:00pm W 19 26 - - - - 10 Partly cloudy - 10.0 1010.1 4.4
19/06:32pm WNW 17 27 - - - - 10 Partly cloudy - 10.6 1009.6 4.4
19/06:30pm WNW 18 27 - - - - 10 Partly cloudy - 10.7 1009.6 4.4
19/06:00pm WNW 15 22 - - - - 10 Partly cloudy Rain 10.1 1009.3 4.4
19/05:38pm W 18 28 - - - - 8 Partly cloudy - 8.6 1009.2 4.4
19/05:30pm W 20 29 - - - - 10 Partly cloudy - 8.9 1009.2 4.2
19/05:07pm WNW 18 28 - - - - 10 Partly cloudy - 11.1 1008.8 4.2
19/05:00pm WNW 19 26 - - - - 10 Partly cloudy - 11.0 1008.7 4.2
19/04:30pm NW 16 23 - - - - 10 Partly cloudy - 10.8 1008.6 4.2
19/04:00pm WNW 21 28 - - - - 10 Cloudy - 10.4 1008.5 4.2
19/03:37pm WNW 18 28 - - - - 10 Partly cloudy - 9.8 1008.3 4.0
19/03:30pm WNW 19 27 - - - - 10 Partly cloudy - 9.9 1008.2 4.0
19/03:18pm WNW 17 26 - - - - 10 Partly cloudy - 9.6 1008.1 4.0
19/03:00pm W 25 40 - - - - 4 Cloudy Rain 7.7 1008.5 4.0
19/02:59pm W 25 40 - - - - 5 Partly cloudy - 7.8 1008.6 4.0
19/02:58pm W 24 40 - - - - 8 Partly cloudy - 8.0 1008.4 3.8
19/02:57pm W 23 40 - - - - 10 Partly cloudy - 8.4 1008.3 3.2
19/02:54pm WNW 20 36 - - - - 10 Partly cloudy - 10.4 1008.2 3.2
19/02:46pm WNW 15 25 - - - - 10 Partly cloudy - 11.4 1007.9 3.2
19/02:30pm WNW 16 21 - - - - 10 Partly cloudy - 11.9 1008.0 3.2
19/02:00pm WNW 12 15 - - - - 10 Partly cloudy - 10.7 1008.1 3.2
19/01:48pm WNW 13 19 - - - - 10 Partly cloudy - 10.4 1008.0 3.2
19/01:38pm WNW 19 29 - - - - 5 Partly cloudy - 8.3 1008.1 3.0
19/01:31pm W 18 29 - - - - 10 Partly cloudy - 9.5 1008.0 2.8
19/01:30pm WNW 17 25 - - - - 10 Partly cloudy - 10.2 1007.9 2.8
19/01:04pm WNW 16 26 - - - - 10 Partly cloudy - 10.4 1007.6 2.8
19/01:00pm W 15 21 - - - - 10 Partly cloudy - 11.0 1007.6 2.8
19/12:30pm W 13 18 - - - - 10 Partly cloudy - 9.3 1007.4 2.8
19/12:14pm WNW 13 19 - - - - 10 Partly cloudy - 9.5 1007.4 2.8
19/12:00pm W 18 29 - - - - 2 Cloudy Rain 7.4 1007.4 2.6
19/11:56am W 20 29 - - - - 3 Partly cloudy - 7.3 1007.6 2.6
19/11:53am WNW 20 29 - - - - 5 Partly cloudy - 7.4 1007.7 1.8
19/11:52am WNW 19 29 - - - - 8 Partly cloudy - 8.2 1007.7 1.4
19/11:48am WNW 16 27 - - - - 10 Partly cloudy - 10.4 1007.3 0.6
19/11:30am WNW 16 26 - - - - 10 Partly cloudy - 10.4 1007.3 0.6
19/11:02am WSW 17 27 - - - - 10 Partly cloudy - 8.6 1007.2 0.6
19/11:00am WSW 18 27 - - - - 10 Partly cloudy - 8.2 1007.2 0.6
19/10:51am WNW 18 26 - - - - 10 - - 8.1 1007.2 0.6
19/10:40am WNW 18 33 - - - - 10 Partly cloudy - 8.7 1006.9 0.4
19/10:30am WNW 15 23 - - - - 10 Partly cloudy - 9.3 1006.9 0.4
19/10:04am WNW 20 30 - - - - 10 Partly cloudy - 8.8 1006.5 0.4
19/10:00am WNW 21 30 - - - - 10 Partly cloudy - 8.7 1006.5 0.4
19/09:31am WNW 19 29 - - - - 9 Partly cloudy - 7.8 1006.0 0.4
19/09:30am WNW 20 29 - - - - 9 Partly cloudy - 7.6 1006.0 0.4
19/09:12am WNW 19 25 - - - - 10 Partly cloudy - 7.8 1006.0 0.2
19/09:00am NW 19 31 - - - - 4 Cloudy Showers 6.7 1006.1 14.0
19/08:50am WNW 21 34 - - - - 5 Partly cloudy - 6.2 1006.1 13.0
19/08:46am WNW 18 31 - - - - 10 Partly cloudy - 8.8 1006.0 12.2
19/08:30am WNW 16 25 - - - - 10 Partly cloudy - 8.8 1005.8 12.2
19/08:03am W 20 30 - - - - 10 Partly cloudy - 8.0 1005.8 12.0
19/08:00am W 19 27 - - - - 10 Partly cloudy - 8.6 1005.7 12.0
19/07:52am WNW 24 34 - - - - 10 Partly cloudy - 8.5 1005.6 12.0
19/07:40am WNW 20 30 - - - - 10 Partly cloudy - 8.9 1005.3 12.0
19/07:30am WNW 19 25 - - - - 10 Partly cloudy - 8.4 1005.3 12.0
19/07:00am NW 20 26 - - - - 10 Partly cloudy - 7.4 1005.3 12.0
19/06:41am WNW 21 33 - - - - 4 Partly cloudy - 6.6 1005.5 11.4
19/06:40am WNW 21 29 - - - - 5 Partly cloudy - 6.6 1005.5 11.4
19/06:39am WNW 20 27 - - - - 6 Partly cloudy - 7.0 1005.5 11.2
19/06:30am NW 19 27 - - - - 10 Partly cloudy - 8.3 1005.0 10.4
19/06:26am NW 18 27 - - - - 10 Partly cloudy - 8.3 1005.0 10.4
19/06:00am WNW 12 19 - - - - 10 Mostly cloudy Rain 7.4 1005.1 10.2
19/05:34am WNW 19 29 - - - - 8 Partly cloudy - 6.7 1005.1 10.2
19/05:30am WNW 17 23 - - - - 10 Partly cloudy - 8.0 1005.1 10.0
19/05:08am NW 19 29 - - - - 10 Partly cloudy - 7.8 1005.0 10.0
19/05:00am NW 18 25 - - - - 10 Partly cloudy - 7.8 1005.0 10.0
19/04:34am NW 15 19 - - - - 10 Partly cloudy - 6.6 1005.3 10.0

Other formats

Comma delimited format used in spreadsheet applications
http://www.bom.gov.au/fwo/IDT60701/IDT60701.94956.axf

JavaScript Object Notation format (JSON) in row-major order
http://www.bom.gov.au/fwo/IDT60701/IDT60701.94956.json

Data quality

Most of these data are generated automatically and are frequently updated. Quality checks on data are not normally performed. It is possible for incorrect values to appear. Refer to information at About Latest Weather Observations and please check the disclaimer before using these data.